Gujranwala Weather



Gujranwala's Current Weather

Temprature 16o smoke

smoke

Rain: 0 %

Min Temprature16o
Max Temprature16o
Humidity59
Wind Speed4.1 m/h
Sun Rise07:00:27
Sun Set17:30:55
Current Time: 27-Jan-2020 18:44:36
Lat/Lon: 32.16, 74.19




Gujranwala's Geo Location



Gujranwala's Weather Forecast

Time Overall Temp Min Temp Max Temp Humidity Wind Speed Rain
27-Jan-2020 (Mon)
20:00:00 light rain 13.370 12.130 13.370 82 2.67 m/h 19 %
23:00:00 light rain 12.830 11.900 12.830 86 4.67 m/h 137 %
28-Jan-2020 (Tue)
02:00:00 light rain 11.900 11.280 11.900 87 3.54 m/h 44 %
05:00:00 light rain 11.380 11.070 11.380 89 2.93 m/h 81 %
08:00:00 light rain 11.050 11.050 11.050 92 2.93 m/h 131 %
11:00:00 light rain 12.070 12.070 12.070 91 4.02 m/h 138 %
14:00:00 moderate rain 11.450 11.450 11.450 91 3.8 m/h 594 %
17:00:00 light rain 11.830 11.830 11.830 94 3.26 m/h 219 %
20:00:00 light rain 11.190 11.190 11.190 96 1.46 m/h 206 %
23:00:00 light rain 10.600 10.600 10.600 98 1.72 m/h 194 %
29-Jan-2020 (Wed)
02:00:00 overcast clouds 10.240 10.240 10.240 96 1.86 m/h 0 %
05:00:00 overcast clouds 9.370 9.370 9.370 95 1.78 m/h 0 %
08:00:00 broken clouds 10.190 10.190 10.190 94 1.9 m/h 0 %
11:00:00 overcast clouds 13.820 13.820 13.820 81 2.17 m/h 0 %
14:00:00 light rain 16.110 16.110 16.110 68 2.54 m/h 50 %
17:00:00 scattered clouds 14.520 14.520 14.520 75 2.13 m/h 0 %
20:00:00 few clouds 10.820 10.820 10.820 89 2.85 m/h 0 %
23:00:00 few clouds 9.320 9.320 9.320 92 2.11 m/h 0 %
30-Jan-2020 (Thu)
02:00:00 clear sky 8.420 8.420 8.420 93 2 m/h 0 %
05:00:00 clear sky 7.560 7.560 7.560 94 1.81 m/h 0 %
08:00:00 few clouds 8.820 8.820 8.820 94 0.99 m/h 0 %
11:00:00 few clouds 15.050 15.050 15.050 70 1.86 m/h 0 %
14:00:00 broken clouds 17.550 17.550 17.550 55 2.19 m/h 0 %
17:00:00 scattered clouds 15.340 15.340 15.340 62 0.81 m/h 0 %
20:00:00 clear sky 11.360 11.360 11.360 72 0.94 m/h 0 %
23:00:00 clear sky 9.950 9.950 9.950 80 0.62 m/h 0 %
31-Jan-2020 (Fri)
02:00:00 few clouds 9.120 9.120 9.120 81 1.18 m/h 0 %
05:00:00 few clouds 7.980 7.980 7.980 85 0.75 m/h 0 %
08:00:00 clear sky 9.860 9.860 9.860 79 0.16 m/h 0 %
11:00:00 clear sky 16.620 16.620 16.620 54 1.2 m/h 0 %
14:00:00 overcast clouds 18.390 18.390 18.390 41 1.65 m/h 0 %
17:00:00 overcast clouds 15.890 15.890 15.890 52 0.57 m/h 0 %
20:00:00 overcast clouds 12.230 12.230 12.230 59 1.38 m/h 0 %
23:00:00 broken clouds 10.340 10.340 10.340 64 0.21 m/h 0 %
01-Feb-2020 (Sat)
02:00:00 clear sky 9.100 9.100 9.100 67 1.07 m/h 0 %
05:00:00 clear sky 8.430 8.430 8.430 65 0.93 m/h 0 %
08:00:00 clear sky 9.820 9.820 9.820 64 0.76 m/h 0 %
11:00:00 clear sky 16.800 16.800 16.800 39 1.74 m/h 0 %
14:00:00 clear sky 19.110 19.110 19.110 31 2.08 m/h 0 %
17:00:00 clear sky 15.990 15.990 15.990 45 1.2 m/h 0 %

Famous Cities (61)